Monterey Peninsula Airport
KMRY : now visible

Airfield :











YOU CAN JOIN US ON...

 
LOGIN :

Register | Disclaimer

   EN    FR    IT 

 









Legend :    VFR   Marginal VFR   IFR   Intensive IFR   Very Intensive IFR
Visi :
Ceiling :
>= 8 km
>= 3000ft
5 to 8 km
1000 to 3000 ft
1500m to 5 km
500 to 1000 ft
800 to 1500m
200 to 500 ft
< 800m
< 200 ft
Symbols :   Thunderstorms  Fog  Heavy snow  Heavy precipitations  Wind > 20 kt






- Airport Elevation : 257 ft
- IATA code : MRY


KMRY - Monterey Peninsula

CURRENT METAR :
  • 030054Z 30010KT 10SM CLR 15/07 A3010 RMK AO2 SLP205 T01500067

EXPIRED METARs :
  • 022354Z 27013KT 10SM CLR 16/06 A3010 RMK AO2 SLP205 T01560056 10167 20144 53002

TAF KMRY
Valid from the 03 at 00:00 until the 04 at 00:00 UTC


022331Z 0300/0324 30012KT P6SM SKC
FM030300 VRB05KT P6SM FEW020
FM031000 27008KT P6SM SCT200
FM031800 27011KT P6SM FEW015 BKN200



MET'MAP, your aeronautical weather chart ! - Copyright ORBIFLY December 2007 - Disclaimer

ORBIFLY MET'MAP TEAM :

Programming & Development : Alexandra Zaïnal
Concept & original design : Baudouin d'Aumeries
Assistance for programming : Marc-Olivier Méhu
Technical & hardware support : Manuel Goepfert

Contact : metmap@orbifly.com




SOURCES & CREDITS :

   NOAA       Earth
Advisory